createdAt,value
2017-08-26T00:00:09.063Z,4.00
2017-08-26T00:01:09.453Z,4.00
2017-08-26T00:02:09.134Z,4.00
2017-08-26T00:03:09.179Z,4.00
2017-08-26T00:04:09.209Z,4.00
2017-08-26T00:05:09.292Z,4.00
2017-08-26T00:06:09.296Z,4.00
2017-08-26T00:07:09.619Z,4.00
2017-08-26T00:08:09.355Z,4.00
2017-08-26T00:09:09.389Z,4.00
2017-08-26T00:10:09.491Z,4.00
2017-08-26T00:11:09.469Z,4.00
2017-08-26T00:12:09.509Z,4.00
2017-08-26T00:13:09.847Z,4.00
2017-08-26T00:14:09.594Z,4.00
2017-08-26T00:15:09.634Z,4.00
2017-08-26T00:16:09.673Z,4.00
2017-08-26T00:17:09.718Z,4.00
2017-08-26T00:18:09.746Z,4.00
2017-08-26T00:19:10.074Z,4.00
2017-08-26T00:20:09.815Z,4.00
2017-08-26T00:21:09.847Z,4.00
2017-08-26T00:22:09.891Z,4.00
2017-08-26T00:23:09.935Z,4.00
2017-08-26T00:24:09.986Z,4.00
2017-08-26T00:25:10.302Z,4.00
2017-08-26T00:26:10.035Z,4.00
2017-08-26T00:27:10.073Z,4.00
2017-08-26T00:28:10.119Z,4.00
2017-08-26T00:29:10.147Z,4.00
2017-08-26T00:30:10.189Z,4.00
2017-08-26T00:31:10.534Z,4.00
2017-08-26T00:32:10.261Z,4.00
2017-08-26T00:33:10.312Z,4.00
2017-08-26T00:34:10.339Z,4.00
2017-08-26T00:35:10.377Z,4.00
2017-08-26T00:36:10.564Z,4.00
2017-08-26T00:37:10.754Z,4.00
2017-08-26T00:38:10.503Z,4.00
2017-08-26T00:39:10.526Z,4.00
2017-08-26T00:40:10.572Z,4.00
2017-08-26T00:41:10.612Z,4.00
2017-08-26T00:42:10.644Z,4.00
2017-08-26T00:43:10.988Z,4.00
2017-08-26T00:44:10.714Z,4.00
2017-08-26T00:45:10.759Z,4.00
2017-08-26T00:46:10.833Z,4.00
2017-08-26T00:47:10.842Z,4.00
2017-08-26T00:48:10.870Z,4.00
2017-08-26T00:49:11.255Z,4.00
2017-08-26T00:50:11.039Z,4.00
2017-08-26T00:51:10.985Z,4.00
2017-08-26T00:52:11.022Z,4.00
2017-08-26T00:53:11.059Z,4.00
2017-08-26T00:54:11.505Z,0.00
2017-08-26T00:55:11.480Z,0.00
2017-08-26T00:56:11.169Z,0.00
2017-08-26T00:57:11.218Z,0.00
2017-08-26T00:58:11.242Z,0.00
2017-08-26T00:59:11.295Z,0.00
2017-08-26T01:00:11.323Z,0.00
2017-08-26T01:01:11.663Z,0.00
2017-08-26T01:02:11.397Z,0.00
2017-08-26T01:03:11.443Z,0.00
2017-08-26T01:04:11.483Z,0.00
2017-08-26T01:05:11.515Z,0.00
2017-08-26T01:06:11.797Z,0.00
2017-08-26T01:07:11.891Z,0.00
2017-08-26T01:08:11.821Z,0.00
2017-08-26T01:09:11.674Z,0.00
2017-08-26T01:10:11.704Z,0.00
2017-08-26T01:11:11.741Z,0.00
2017-08-26T01:12:11.776Z,0.00
2017-08-26T01:13:12.109Z,0.00
2017-08-26T01:14:11.854Z,0.00
2017-08-26T01:15:11.896Z,0.00
2017-08-26T01:16:11.929Z,0.00
2017-08-26T01:17:12.017Z,0.00
2017-08-26T01:18:12.009Z,0.00
2017-08-26T01:19:12.337Z,0.00
2017-08-26T01:20:12.226Z,0.00
2017-08-26T01:21:12.115Z,0.00
2017-08-26T01:22:12.168Z,0.00
2017-08-26T01:23:12.192Z,0.00
2017-08-26T01:24:12.226Z,0.00
2017-08-26T01:25:12.263Z,0.00
2017-08-26T01:26:12.608Z,0.00
2017-08-26T01:27:12.339Z,0.00
2017-08-26T01:28:12.379Z,0.00
2017-08-26T01:29:12.413Z,0.00
2017-08-26T01:30:12.457Z,0.00
2017-08-26T01:31:12.641Z,0.00
2017-08-26T01:32:12.829Z,0.00
2017-08-26T01:33:12.563Z,0.00
2017-08-26T01:34:12.608Z,0.00
2017-08-26T01:35:12.644Z,0.00
2017-08-26T01:36:12.684Z,0.00
2017-08-26T01:37:12.714Z,0.00
2017-08-26T01:38:13.066Z,0.00
2017-08-26T01:39:12.796Z,0.00
2017-08-26T01:40:12.877Z,0.00
2017-08-26T01:41:12.869Z,0.00
2017-08-26T01:42:12.910Z,0.00
2017-08-26T01:43:12.943Z,0.00
2017-08-26T01:44:13.277Z,0.00
2017-08-26T01:45:13.116Z,0.00
2017-08-26T01:46:13.055Z,0.00
2017-08-26T01:47:13.090Z,0.00
2017-08-26T01:48:13.130Z,0.00
2017-08-26T01:49:13.175Z,0.00
2017-08-26T01:50:13.559Z,0.00
2017-08-26T01:51:13.244Z,0.00
2017-08-26T01:52:13.280Z,0.00
2017-08-26T01:53:13.334Z,0.00
2017-08-26T01:54:13.355Z,0.00
2017-08-26T01:55:13.447Z,0.00
2017-08-26T01:56:13.447Z,0.00
2017-08-26T01:57:13.767Z,0.00
2017-08-26T01:58:13.506Z,0.00
2017-08-26T01:59:13.561Z,0.00
2017-08-26T02:00:13.680Z,0.00
2017-08-26T02:01:13.624Z,0.00
2017-08-26T02:02:13.667Z,0.00
2017-08-26T02:03:13.997Z,0.00
2017-08-26T02:04:13.744Z,0.00
2017-08-26T02:05:13.878Z,0.00
2017-08-26T02:06:13.810Z,0.00
2017-08-26T02:07:13.847Z,0.00
2017-08-26T02:08:13.882Z,0.00
2017-08-26T02:09:13.934Z,0.00
2017-08-26T02:10:14.258Z,0.00
2017-08-26T02:11:13.993Z,0.00
2017-08-26T02:12:14.044Z,0.00
2017-08-26T02:13:14.069Z,0.00
2017-08-26T02:14:14.112Z,0.00
2017-08-26T02:15:14.173Z,0.00
2017-08-26T02:16:14.638Z,0.00
2017-08-26T02:17:14.220Z,0.00
2017-08-26T02:18:14.255Z,0.00
2017-08-26T02:19:14.306Z,0.00
2017-08-26T02:20:14.330Z,0.00
2017-08-26T02:21:14.399Z,0.00
2017-08-26T02:22:14.708Z,0.00
2017-08-26T02:23:14.500Z,0.00
2017-08-26T02:24:14.483Z,0.00
2017-08-26T02:25:14.519Z,0.00
2017-08-26T02:26:14.610Z,0.00
2017-08-26T02:27:14.606Z,0.00
2017-08-26T02:28:14.934Z,0.00
2017-08-26T02:29:14.721Z,0.00
2017-08-26T02:30:14.709Z,0.00
2017-08-26T02:31:14.755Z,0.00
2017-08-26T02:32:14.829Z,0.00
2017-08-26T02:33:14.832Z,0.00
2017-08-26T02:34:15.160Z,0.00
2017-08-26T02:35:14.916Z,0.00
2017-08-26T02:36:14.991Z,0.00
2017-08-26T02:37:15.050Z,0.00
2017-08-26T02:38:15.008Z,0.00
2017-08-26T02:39:15.052Z,0.00
2017-08-26T02:40:15.402Z,0.00
2017-08-26T02:41:15.126Z,0.00
2017-08-26T02:42:15.207Z,0.00
2017-08-26T02:43:15.245Z,0.00
2017-08-26T02:44:15.244Z,0.00
2017-08-26T02:45:15.272Z,0.00
2017-08-26T02:46:15.609Z,0.00
2017-08-26T02:47:15.447Z,0.00
2017-08-26T02:48:15.382Z,0.00
2017-08-26T02:49:15.422Z,0.00
2017-08-26T02:50:15.458Z,0.00
2017-08-26T02:51:15.569Z,0.00
2017-08-26T02:52:15.847Z,0.00
2017-08-26T02:53:15.572Z,0.00
2017-08-26T02:54:15.609Z,0.00
2017-08-26T02:55:15.648Z,0.00
2017-08-26T02:56:15.732Z,0.00
2017-08-26T02:57:15.722Z,0.00
2017-08-26T02:58:16.120Z,0.00
2017-08-26T02:59:15.815Z,0.00
2017-08-26T03:00:15.852Z,0.00
2017-08-26T03:01:15.894Z,0.00
2017-08-26T03:02:16.060Z,0.00
2017-08-26T03:03:15.947Z,0.00
2017-08-26T03:04:16.316Z,0.00
2017-08-26T03:05:16.025Z,0.00
2017-08-26T03:06:16.103Z,0.00
2017-08-26T03:07:16.146Z,0.00
2017-08-26T03:08:16.154Z,0.00
2017-08-26T03:09:16.182Z,0.00
2017-08-26T03:10:16.508Z,0.00
2017-08-26T03:11:16.247Z,0.00
2017-08-26T03:12:16.287Z,0.00
2017-08-26T03:13:16.324Z,0.00
2017-08-26T03:14:16.375Z,0.00
2017-08-26T03:15:16.404Z,0.00
2017-08-26T03:16:16.738Z,0.00
2017-08-26T03:17:16.483Z,0.00
2017-08-26T03:18:16.513Z,0.00
2017-08-26T03:19:16.550Z,0.00
2017-08-26T03:20:16.639Z,0.00
2017-08-26T03:21:16.683Z,0.00
2017-08-26T03:22:16.711Z,0.00
2017-08-26T03:23:16.999Z,0.00
2017-08-26T03:24:16.741Z,0.00
2017-08-26T03:25:16.774Z,0.00
2017-08-26T03:26:16.809Z,0.00
2017-08-26T03:27:16.927Z,0.00
2017-08-26T03:28:16.888Z,0.00
2017-08-26T03:29:17.236Z,0.00
2017-08-26T03:30:16.970Z,0.00
2017-08-26T03:31:16.998Z,0.00
2017-08-26T03:32:17.239Z,0.00
2017-08-26T03:33:17.073Z,0.00
2017-08-26T03:34:17.113Z,0.00
2017-08-26T03:35:17.455Z,0.00
2017-08-26T03:36:17.186Z,0.00
2017-08-26T03:37:17.230Z,0.00
2017-08-26T03:38:17.265Z,0.00
2017-08-26T03:39:17.302Z,0.00
2017-08-26T03:40:17.334Z,0.00
2017-08-26T03:41:17.705Z,0.00
2017-08-26T03:42:17.417Z,0.00
2017-08-26T03:43:17.652Z,0.00
2017-08-26T03:44:17.482Z,0.00
2017-08-26T03:45:17.522Z,0.00
2017-08-26T03:46:17.565Z,0.00
2017-08-26T03:47:17.903Z,0.00
2017-08-26T03:48:17.645Z,0.00
2017-08-26T03:49:17.926Z,0.00
2017-08-26T03:50:18.074Z,0.00
2017-08-26T03:51:17.748Z,0.00
2017-08-26T03:52:17.789Z,0.00
2017-08-26T03:53:18.122Z,0.00
2017-08-26T03:54:17.859Z,0.00
2017-08-26T03:55:17.927Z,0.00
2017-08-26T03:56:17.948Z,0.00
2017-08-26T03:57:17.980Z,0.00
2017-08-26T03:58:18.018Z,0.00
2017-08-26T03:59:18.368Z,0.00
2017-08-26T04:00:18.223Z,0.00
2017-08-26T04:01:18.124Z,0.00
2017-08-26T04:02:18.157Z,0.00
2017-08-26T04:03:18.229Z,0.00
2017-08-26T04:04:18.337Z,0.00
2017-08-26T04:05:20.027Z,0.00
2017-08-26T04:06:18.311Z,0.00
2017-08-26T04:08:18.435Z,0.00
2017-08-26T04:09:18.431Z,0.00
2017-08-26T04:10:18.459Z,0.00
2017-08-26T04:12:18.834Z,0.00
2017-08-26T04:13:18.635Z,4.00
2017-08-26T04:14:19.370Z,4.00
2017-08-26T04:15:18.648Z,4.00
2017-08-26T04:16:18.687Z,4.00
2017-08-26T04:17:18.722Z,4.00
2017-08-26T04:18:19.214Z,4.00
2017-08-26T04:19:18.798Z,8.00
2017-08-26T04:20:18.831Z,4.00
2017-08-26T04:21:18.875Z,8.00
2017-08-26T04:22:18.966Z,12.00
2017-08-26T04:23:18.946Z,12.00
2017-08-26T04:24:19.533Z,12.00
2017-08-26T04:25:19.021Z,12.00
2017-08-26T04:26:19.055Z,20.00
2017-08-26T04:27:19.094Z,20.00
2017-08-26T04:28:19.132Z,20.00
2017-08-26T04:29:19.219Z,24.00
2017-08-26T04:30:19.511Z,24.00
2017-08-26T04:31:19.256Z,28.00
2017-08-26T04:32:19.283Z,28.00
2017-08-26T04:33:19.324Z,32.00
2017-08-26T04:34:19.360Z,32.00
2017-08-26T04:35:19.393Z,36.00
2017-08-26T04:36:19.440Z,40.00
2017-08-26T04:37:19.770Z,44.00
2017-08-26T04:38:19.505Z,44.00
2017-08-26T04:39:19.543Z,48.00
2017-08-26T04:40:19.792Z,52.00
2017-08-26T04:41:19.637Z,60.00
2017-08-26T04:42:19.654Z,64.00
2017-08-26T04:43:19.993Z,68.00
2017-08-26T04:44:19.724Z,76.00
2017-08-26T04:45:19.769Z,84.00
2017-08-26T04:46:19.800Z,92.00
2017-08-26T04:47:19.840Z,100.00
2017-08-26T04:48:19.879Z,108.00
2017-08-26T04:49:20.215Z,116.00
2017-08-26T04:50:19.955Z,128.00
2017-08-26T04:51:19.991Z,136.00
2017-08-26T04:52:20.026Z,148.00
2017-08-26T04:53:20.068Z,160.00
2017-08-26T04:54:20.110Z,172.00
2017-08-26T04:55:20.444Z,176.00
2017-08-26T04:56:20.175Z,184.00
2017-08-26T04:57:20.217Z,188.00
2017-08-26T04:58:20.259Z,196.00
2017-08-26T04:59:20.286Z,204.00
2017-08-26T05:00:20.382Z,216.00
2017-08-26T05:01:20.673Z,228.00
2017-08-26T05:02:20.398Z,236.00
2017-08-26T05:03:20.456Z,248.00
2017-08-26T05:04:20.471Z,260.00
2017-08-26T05:05:20.988Z,272.00
2017-08-26T05:06:20.564Z,284.00
2017-08-26T05:07:20.892Z,292.00
2017-08-26T05:08:20.628Z,300.00
2017-08-26T05:09:20.659Z,312.00
2017-08-26T05:10:20.998Z,324.00
2017-08-26T05:11:20.739Z,336.00
2017-08-26T05:12:20.772Z,348.00
2017-08-26T05:13:21.120Z,360.00
2017-08-26T05:14:21.046Z,372.00
2017-08-26T05:15:20.881Z,384.00
2017-08-26T05:16:20.935Z,400.00
2017-08-26T05:17:20.963Z,412.00
2017-08-26T05:18:21.005Z,424.00
2017-08-26T05:19:21.379Z,444.00
2017-08-26T05:20:21.084Z,456.00
2017-08-26T05:21:21.110Z,476.00
2017-08-26T05:22:21.143Z,500.00
2017-08-26T05:23:21.188Z,516.00
2017-08-26T05:24:21.274Z,540.00
2017-08-26T05:25:21.562Z,560.00
2017-08-26T05:26:21.299Z,584.00
2017-08-26T05:27:21.333Z,608.00
2017-08-26T05:28:21.371Z,632.00
2017-08-26T05:29:21.405Z,656.00
2017-08-26T05:30:21.444Z,684.00
2017-08-26T05:31:21.778Z,708.00
2017-08-26T05:32:21.514Z,736.00
2017-08-26T05:33:21.550Z,760.00
2017-08-26T05:34:21.602Z,784.00
2017-08-26T05:35:21.782Z,804.00
2017-08-26T05:36:21.675Z,824.00
2017-08-26T05:37:22.007Z,848.00
2017-08-26T05:38:21.755Z,864.00
2017-08-26T05:39:21.780Z,888.00
2017-08-26T05:40:21.815Z,908.00
2017-08-26T05:41:21.917Z,932.00
2017-08-26T05:42:21.900Z,956.00
2017-08-26T05:43:22.231Z,980.00
2017-08-26T05:44:21.972Z,1000.00
2017-08-26T05:45:22.006Z,1024.00
2017-08-26T05:46:22.142Z,1052.00
2017-08-26T05:47:22.074Z,1076.00
2017-08-26T05:48:22.120Z,1116.00
2017-08-26T05:49:22.206Z,1152.00
2017-08-26T05:50:22.499Z,1180.00
2017-08-26T05:51:22.240Z,1204.00
2017-08-26T05:52:22.466Z,1232.00
2017-08-26T05:53:22.304Z,1256.00
2017-08-26T05:54:22.349Z,1280.00
2017-08-26T05:55:22.384Z,1296.00
2017-08-26T05:56:22.716Z,1312.00
2017-08-26T05:57:22.488Z,1320.00
2017-08-26T05:58:22.504Z,1320.00
2017-08-26T05:59:22.528Z,1320.00
2017-08-26T06:00:22.588Z,1316.00
2017-08-26T06:01:22.601Z,1312.00
2017-08-26T06:02:22.950Z,1316.00
2017-08-26T06:03:22.675Z,1336.00
2017-08-26T06:04:22.725Z,1356.00
2017-08-26T06:05:22.763Z,1368.00
2017-08-26T06:06:22.788Z,1380.00
2017-08-26T06:07:22.828Z,1388.00
2017-08-26T06:08:23.221Z,1404.00
2017-08-26T06:09:22.897Z,1432.00
2017-08-26T06:10:22.939Z,1468.00
2017-08-26T06:11:22.970Z,1484.00
2017-08-26T06:12:23.016Z,1484.00
2017-08-26T06:13:23.061Z,1488.00
2017-08-26T06:14:23.399Z,1508.00
2017-08-26T06:15:23.132Z,1524.00
2017-08-26T06:16:23.168Z,1544.00
2017-08-26T06:17:23.400Z,1564.00
2017-08-26T06:18:23.236Z,1592.00
2017-08-26T06:19:23.274Z,1620.00
2017-08-26T06:20:23.613Z,1648.00
2017-08-26T06:21:23.367Z,1672.00
2017-08-26T06:22:23.388Z,1700.00
2017-08-26T06:23:23.462Z,1720.00
2017-08-26T06:24:23.464Z,1752.00
2017-08-26T06:25:23.502Z,1780.00
2017-08-26T06:26:23.833Z,1812.00
2017-08-26T06:27:23.579Z,1844.00
2017-08-26T06:28:23.713Z,1924.00
2017-08-26T06:29:23.655Z,1944.00
2017-08-26T06:30:23.691Z,1960.00
2017-08-26T06:31:23.729Z,1968.00
2017-08-26T06:32:24.118Z,1984.00
2017-08-26T06:33:23.863Z,2008.00
2017-08-26T06:34:23.835Z,2024.00
2017-08-26T06:35:23.877Z,2044.00
2017-08-26T06:36:23.915Z,2064.00
2017-08-26T06:37:23.954Z,2084.00
2017-08-26T06:38:24.302Z,2120.00
2017-08-26T06:39:24.490Z,2160.00
2017-08-26T06:40:24.071Z,2188.00
2017-08-26T06:41:24.113Z,2204.00
2017-08-26T06:42:24.167Z,2200.00
2017-08-26T06:43:24.176Z,2180.00
2017-08-26T06:44:24.514Z,2160.00
2017-08-26T06:45:24.270Z,2156.00
2017-08-26T06:46:24.290Z,2164.00
2017-08-26T06:47:24.380Z,2196.00
2017-08-26T06:48:24.391Z,2196.00
2017-08-26T06:49:24.413Z,2192.00
2017-08-26T06:50:24.742Z,2220.00
2017-08-26T06:51:24.497Z,2208.00
2017-08-26T06:52:24.522Z,2212.00
2017-08-26T06:53:24.561Z,2240.00
2017-08-26T06:54:24.593Z,2220.00
2017-08-26T06:55:24.635Z,2204.00
2017-08-26T06:56:24.976Z,2192.00
2017-08-26T06:57:24.708Z,2180.00
2017-08-26T06:58:24.746Z,2208.00
2017-08-26T06:59:24.782Z,2252.00
2017-08-26T07:00:24.828Z,2296.00
2017-08-26T07:01:24.905Z,2364.00
2017-08-26T07:02:25.465Z,2444.00
2017-08-26T07:03:24.939Z,2492.00
2017-08-26T07:04:24.994Z,2572.00
2017-08-26T07:05:25.014Z,2700.00
2017-08-26T07:06:25.047Z,2896.00
2017-08-26T07:07:25.091Z,3056.00
2017-08-26T07:08:25.426Z,3228.00
2017-08-26T07:09:25.167Z,3364.00
2017-08-26T07:10:25.260Z,3460.00
2017-08-26T07:11:25.267Z,3524.00
2017-08-26T07:12:25.277Z,3584.00
2017-08-26T07:13:25.350Z,3644.00
2017-08-26T07:14:25.660Z,3644.00
2017-08-26T07:15:25.396Z,3716.00
2017-08-26T07:16:25.439Z,3820.00
2017-08-26T07:17:25.479Z,3924.00
2017-08-26T07:18:25.510Z,4020.00
2017-08-26T07:19:25.558Z,4080.00
2017-08-26T07:20:25.895Z,4108.00
2017-08-26T07:21:25.622Z,4140.00
2017-08-26T07:22:25.666Z,4212.00
2017-08-26T07:23:25.798Z,4328.00
2017-08-26T07:24:25.734Z,4404.00
2017-08-26T07:25:25.776Z,4428.00
2017-08-26T07:26:26.112Z,4464.00
2017-08-26T07:27:25.858Z,4404.00
2017-08-26T07:28:25.898Z,4404.00
2017-08-26T07:29:25.986Z,4396.00
2017-08-26T07:30:25.968Z,4340.00
2017-08-26T07:31:26.003Z,4292.00
2017-08-26T07:32:26.349Z,4232.00
2017-08-26T07:33:26.086Z,4216.00
2017-08-26T07:34:26.234Z,4232.00
2017-08-26T07:35:26.159Z,4192.00
2017-08-26T07:36:26.200Z,4092.00
2017-08-26T07:37:26.252Z,3956.00
2017-08-26T07:38:26.574Z,3832.00
2017-08-26T07:39:26.323Z,3736.00
2017-08-26T07:40:26.370Z,3660.00
2017-08-26T07:41:26.399Z,3620.00
2017-08-26T07:42:26.438Z,3624.00
2017-08-26T07:43:26.472Z,3660.00
2017-08-26T07:44:26.960Z,3612.00
2017-08-26T07:45:26.554Z,3528.00
2017-08-26T07:46:26.597Z,3460.00
2017-08-26T07:47:26.645Z,3336.00
2017-08-26T07:48:26.672Z,3272.00
2017-08-26T07:49:26.708Z,3220.00
2017-08-26T07:50:27.042Z,3220.00
2017-08-26T07:51:26.778Z,3200.00
2017-08-26T07:52:26.825Z,3164.00
2017-08-26T07:53:26.856Z,3192.00
2017-08-26T07:54:26.959Z,3256.00
2017-08-26T07:55:26.933Z,3256.00
2017-08-26T07:56:27.275Z,3356.00
2017-08-26T07:57:27.032Z,3588.00
2017-08-26T07:58:27.047Z,3924.00
2017-08-26T07:59:27.095Z,4192.00
2017-08-26T08:00:27.123Z,4272.00
2017-08-26T08:01:27.165Z,4456.00
2017-08-26T08:02:27.506Z,4460.00
2017-08-26T08:03:27.242Z,4248.00
2017-08-26T08:04:27.284Z,4256.00
2017-08-26T08:05:27.320Z,4208.00
2017-08-26T08:06:27.366Z,4232.00
2017-08-26T08:07:27.405Z,4388.00
2017-08-26T08:08:27.738Z,4600.00
2017-08-26T08:09:27.479Z,4536.00
2017-08-26T08:10:27.563Z,4744.00
2017-08-26T08:11:27.552Z,5096.00
2017-08-26T08:12:27.603Z,5264.00
2017-08-26T08:13:27.635Z,5120.00
2017-08-26T08:14:28.005Z,4980.00
2017-08-26T08:15:27.710Z,4816.00
2017-08-26T08:16:27.804Z,4468.00
2017-08-26T08:17:27.784Z,4264.00
2017-08-26T08:18:27.823Z,4388.00
2017-08-26T08:19:27.875Z,4704.00
2017-08-26T08:20:28.234Z,4920.00
2017-08-26T08:21:27.996Z,5164.00
2017-08-26T08:22:28.084Z,5416.00
2017-08-26T08:23:28.024Z,5544.00
2017-08-26T08:24:28.054Z,5296.00
2017-08-26T08:25:28.107Z,5040.00
2017-08-26T08:26:28.431Z,5080.00
2017-08-26T08:27:28.322Z,5140.00
2017-08-26T08:28:28.219Z,5076.00
2017-08-26T08:29:28.264Z,4864.00
2017-08-26T08:30:28.291Z,4360.00
2017-08-26T08:31:28.326Z,3980.00
2017-08-26T08:32:29.272Z,3724.00
2017-08-26T08:33:28.558Z,3632.00
2017-08-26T08:34:28.455Z,3840.00
2017-08-26T08:35:28.488Z,4044.00
2017-08-26T08:36:28.524Z,4056.00
2017-08-26T08:37:28.565Z,3944.00
2017-08-26T08:38:28.900Z,3968.00
2017-08-26T08:39:28.644Z,4144.00
2017-08-26T08:40:28.682Z,4460.00
2017-08-26T08:41:28.716Z,4368.00
2017-08-26T08:42:28.768Z,3912.00
2017-08-26T08:43:28.802Z,3696.00
2017-08-26T08:44:29.289Z,3652.00
2017-08-26T08:45:28.878Z,3632.00
2017-08-26T08:46:28.970Z,3748.00
2017-08-26T08:47:28.953Z,4116.00
2017-08-26T08:48:28.998Z,4788.00
2017-08-26T08:49:29.052Z,5328.00
2017-08-26T08:50:29.381Z,5664.00
2017-08-26T08:51:29.269Z,5720.00
2017-08-26T08:52:29.146Z,5660.00
2017-08-26T08:53:29.187Z,5532.00
2017-08-26T08:54:29.242Z,5456.00
2017-08-26T08:55:29.270Z,5364.00
2017-08-26T08:56:29.666Z,5244.00
2017-08-26T08:57:29.353Z,5332.00
2017-08-26T08:58:29.388Z,5404.00
2017-08-26T08:59:29.452Z,5488.00
2017-08-26T09:00:29.471Z,5636.00
2017-08-26T09:01:29.503Z,5396.00
2017-08-26T09:02:29.854Z,5380.00
2017-08-26T09:03:29.590Z,5724.00
2017-08-26T09:04:29.625Z,6120.00
2017-08-26T09:05:29.718Z,6196.00
2017-08-26T09:06:29.697Z,5844.00
2017-08-26T09:07:29.735Z,5396.00
2017-08-26T09:08:30.105Z,5372.00
2017-08-26T09:09:29.813Z,5424.00
2017-08-26T09:10:29.879Z,5572.00
2017-08-26T09:11:29.894Z,5828.00
2017-08-26T09:12:29.935Z,5876.00
2017-08-26T09:13:29.976Z,5756.00
2017-08-26T09:14:30.330Z,5748.00
2017-08-26T09:15:30.364Z,5848.00
2017-08-26T09:16:30.102Z,6068.00
2017-08-26T09:17:30.179Z,6048.00
2017-08-26T09:18:30.182Z,6460.00
2017-08-26T09:19:30.213Z,7060.00
2017-08-26T09:20:30.596Z,6920.00
2017-08-26T09:21:30.286Z,6360.00
2017-08-26T09:22:30.328Z,6004.00
2017-08-26T09:23:30.363Z,5904.00
2017-08-26T09:24:30.422Z,6036.00
2017-08-26T09:25:30.484Z,6232.00
2017-08-26T09:26:30.490Z,6352.00
2017-08-26T09:27:30.870Z,6112.00
2017-08-26T09:28:30.559Z,5812.00
2017-08-26T09:29:30.602Z,5752.00
2017-08-26T09:30:30.638Z,5884.00
2017-08-26T09:31:30.683Z,5920.00
2017-08-26T09:32:30.774Z,5920.00
2017-08-26T09:33:30.814Z,6168.00
2017-08-26T09:34:31.103Z,6356.00
2017-08-26T09:35:30.845Z,6660.00
2017-08-26T09:36:30.886Z,6968.00
2017-08-26T09:37:30.923Z,7224.00
2017-08-26T09:38:30.976Z,7520.00
2017-08-26T09:39:31.011Z,7456.00
2017-08-26T09:40:31.351Z,7596.00
2017-08-26T09:41:31.085Z,7996.00
2017-08-26T09:42:31.121Z,8072.00
2017-08-26T09:43:31.154Z,7952.00
2017-08-26T09:44:31.192Z,7572.00
2017-08-26T09:45:31.233Z,7288.00
2017-08-26T09:46:31.624Z,7224.00
2017-08-26T09:47:31.308Z,7656.00
2017-08-26T09:48:31.349Z,8184.00
2017-08-26T09:49:31.395Z,8020.00
2017-08-26T09:50:31.456Z,8056.00
2017-08-26T09:51:31.491Z,8148.00
2017-08-26T09:52:31.825Z,7956.00
2017-08-26T09:53:31.557Z,7984.00
2017-08-26T09:54:31.585Z,8148.00
2017-08-26T09:55:31.634Z,8192.00
2017-08-26T09:56:31.672Z,8564.00
2017-08-26T09:57:31.705Z,8372.00
2017-08-26T09:58:32.048Z,8216.00
2017-08-26T09:59:31.950Z,7692.00
2017-08-26T10:00:31.839Z,7328.00
2017-08-26T10:01:31.866Z,7132.00
2017-08-26T10:02:31.959Z,6960.00
2017-08-26T10:03:31.952Z,6668.00
2017-08-26T10:04:32.292Z,6508.00
2017-08-26T10:05:32.033Z,6240.00
2017-08-26T10:06:32.063Z,5344.00
2017-08-26T10:07:32.102Z,5144.00
2017-08-26T10:08:32.150Z,4720.00
2017-08-26T10:09:32.188Z,4996.00
2017-08-26T10:10:32.524Z,5632.00
2017-08-26T10:11:32.270Z,6132.00
2017-08-26T10:12:32.405Z,6284.00
2017-08-26T10:13:32.720Z,6380.00
2017-08-26T10:14:32.391Z,7116.00
2017-08-26T10:15:32.436Z,7832.00
2017-08-26T10:16:32.768Z,7944.00
2017-08-26T10:17:32.506Z,7848.00
2017-08-26T10:18:32.544Z,7928.00
2017-08-26T10:19:32.599Z,8272.00
2017-08-26T10:20:32.681Z,7564.00
2017-08-26T10:21:32.664Z,7252.00
2017-08-26T10:22:33.159Z,7804.00
2017-08-26T10:23:32.742Z,8236.00
2017-08-26T10:24:32.804Z,8584.00
2017-08-26T10:25:32.854Z,9128.00
2017-08-26T10:26:32.865Z,9596.00
2017-08-26T10:27:32.900Z,9684.00
2017-08-26T10:28:33.390Z,9168.00
2017-08-26T10:29:32.982Z,9156.00
2017-08-26T10:30:33.025Z,9340.00
2017-08-26T10:31:33.113Z,9048.00
2017-08-26T10:32:33.099Z,8932.00
2017-08-26T10:33:33.138Z,9344.00
2017-08-26T10:34:33.496Z,9480.00
2017-08-26T10:35:33.274Z,9616.00
2017-08-26T10:36:33.329Z,9704.00
2017-08-26T10:37:33.311Z,9440.00
2017-08-26T10:38:33.343Z,9328.00
2017-08-26T10:39:33.408Z,9600.00
2017-08-26T10:40:33.752Z,9336.00
2017-08-26T10:41:33.475Z,8900.00
2017-08-26T10:42:33.501Z,9064.00
2017-08-26T10:43:33.541Z,9196.00
2017-08-26T10:44:33.595Z,9304.00
2017-08-26T10:45:33.630Z,9292.00
2017-08-26T10:46:34.009Z,9184.00
2017-08-26T10:47:33.757Z,9488.00
2017-08-26T10:48:33.768Z,10048.00
2017-08-26T10:49:33.778Z,10128.00
2017-08-26T10:50:33.835Z,10244.00
2017-08-26T10:51:33.871Z,10380.00
2017-08-26T10:52:34.261Z,10400.00
2017-08-26T10:53:33.946Z,10292.00
2017-08-26T10:54:33.983Z,10012.00
2017-08-26T10:55:34.022Z,10016.00
2017-08-26T10:56:34.060Z,10024.00
2017-08-26T10:57:34.110Z,9288.00
2017-08-26T10:58:34.443Z,8448.00
2017-08-26T10:59:34.211Z,8424.00
2017-08-26T11:00:34.238Z,8872.00
2017-08-26T11:01:34.270Z,9172.00
2017-08-26T11:02:34.311Z,9588.00
2017-08-26T11:03:34.392Z,8912.00
2017-08-26T11:04:34.685Z,7664.00
2017-08-26T11:05:34.470Z,6300.00
2017-08-26T11:06:34.467Z,5760.00
2017-08-26T11:07:34.505Z,6116.00
2017-08-26T11:08:34.598Z,6772.00
2017-08-26T11:09:34.586Z,6764.00
2017-08-26T11:10:34.946Z,6784.00
2017-08-26T11:11:35.676Z,7016.00
2017-08-26T11:12:34.987Z,7856.00
2017-08-26T11:13:35.081Z,8696.00
2017-08-26T11:14:34.805Z,8408.00
2017-08-26T11:15:34.979Z,8128.00
2017-08-26T11:16:35.232Z,8288.00
2017-08-26T11:17:34.931Z,8584.00
2017-08-26T11:18:34.954Z,8808.00
2017-08-26T11:19:35.074Z,8504.00
2017-08-26T11:20:35.204Z,8024.00
2017-08-26T11:21:35.129Z,8212.00
2017-08-26T11:22:35.423Z,8608.00
2017-08-26T11:23:35.179Z,8584.00
2017-08-26T11:24:35.250Z,7744.00
2017-08-26T11:25:35.278Z,6468.00
2017-08-26T11:26:35.271Z,5600.00
2017-08-26T11:27:35.310Z,6100.00
2017-08-26T11:28:35.676Z,7300.00
2017-08-26T11:29:35.397Z,8752.00
2017-08-26T11:30:35.445Z,9832.00
2017-08-26T11:31:35.487Z,10192.00
2017-08-26T11:32:35.510Z,9584.00
2017-08-26T11:33:35.552Z,8860.00
2017-08-26T11:34:35.957Z,7864.00
2017-08-26T11:35:35.633Z,7108.00
2017-08-26T11:36:35.673Z,6840.00
2017-08-26T11:37:35.718Z,7568.00
2017-08-26T11:38:35.754Z,9120.00
2017-08-26T11:39:35.797Z,9968.00
2017-08-26T11:40:36.147Z,9308.00
2017-08-26T11:41:35.880Z,8944.00
2017-08-26T11:42:36.012Z,9012.00
2017-08-26T11:43:35.966Z,9480.00
2017-08-26T11:44:35.997Z,9724.00
2017-08-26T11:45:36.099Z,9756.00
2017-08-26T11:46:36.379Z,9348.00
2017-08-26T11:47:36.116Z,8676.00
2017-08-26T11:48:36.173Z,8224.00
2017-08-26T11:49:36.196Z,8556.00
2017-08-26T11:50:36.488Z,8776.00
2017-08-26T11:51:36.294Z,8504.00
2017-08-26T11:52:36.619Z,8000.00
2017-08-26T11:53:36.406Z,8844.00
2017-08-26T11:54:36.404Z,9592.00
2017-08-26T11:55:36.448Z,10388.00
2017-08-26T11:56:36.534Z,11432.00
2017-08-26T11:57:36.518Z,11592.00
2017-08-26T11:58:36.872Z,10700.00
2017-08-26T11:59:36.601Z,9440.00
2017-08-26T12:00:36.654Z,8440.00
2017-08-26T12:01:36.681Z,8100.00
2017-08-26T12:02:36.754Z,8624.00
2017-08-26T12:03:36.845Z,8464.00
2017-08-26T12:04:37.115Z,8220.00
2017-08-26T12:05:36.843Z,9376.00
2017-08-26T12:06:36.890Z,9464.00
2017-08-26T12:07:36.935Z,9804.00
2017-08-26T12:08:36.968Z,10516.00
2017-08-26T12:09:37.020Z,10788.00
2017-08-26T12:10:37.342Z,10692.00
2017-08-26T12:11:37.090Z,10472.00
2017-08-26T12:12:37.237Z,10584.00
2017-08-26T12:13:37.162Z,10184.00
2017-08-26T12:14:37.220Z,9688.00
2017-08-26T12:15:37.254Z,10088.00
2017-08-26T12:16:37.592Z,10328.00
2017-08-26T12:17:37.328Z,10632.00
2017-08-26T12:18:37.367Z,10744.00
2017-08-26T12:19:37.404Z,10756.00
2017-08-26T12:20:37.450Z,10968.00
2017-08-26T12:21:37.491Z,11484.00
2017-08-26T12:22:37.842Z,12016.00
2017-08-26T12:23:37.569Z,12160.00
2017-08-26T12:24:37.617Z,11996.00
2017-08-26T12:25:37.656Z,11412.00
2017-08-26T12:26:37.733Z,10372.00
2017-08-26T12:27:37.736Z,10068.00
2017-08-26T12:28:38.078Z,9944.00
2017-08-26T12:29:37.819Z,8800.00
2017-08-26T12:30:37.862Z,7788.00
2017-08-26T12:31:37.895Z,7356.00
2017-08-26T12:32:37.943Z,7120.00
2017-08-26T12:33:37.986Z,6828.00